Kingston, Australia
Current Conditions -  °F | °C
As of 2:00 PM on Thursday 23 Oct 2014 (Local Time) from YMHB Reporting Station
Few Clouds Few Clouds  
Wind Chill: 59°   Ceiling: Unl
Heat Index: 59°   Visibility: 6mi
Dew Point: 37°   Wind: 13mph
Humidity: 45%   Direction: 160°SSE
Pressure: 30.27"   Gusts: NA
Location:  42.97°S, 147.32°E
Report Text: YMHB 230300Z 16011KT 9999 FEW040 15/03 Q1025
Loading
Personal Weather Stations






























Interactive Weather Map
Tropical Storm Tracking
New forecast layout! Learn more

10-Day Weather Forecast

Advertisements
Track Severe Weather on mobile